createdAt,value
2018-02-14T00:02:10.836Z,-6.53
2018-02-14T00:04:38.382Z,-6.57
2018-02-14T00:07:06.051Z,-6.62
2018-02-14T00:09:33.614Z,-6.56
2018-02-14T00:12:01.190Z,-6.40
2018-02-14T00:14:28.702Z,-6.51
2018-02-14T00:16:56.255Z,-6.58
2018-02-14T00:19:23.782Z,-6.47
2018-02-14T00:21:51.317Z,-6.38
2018-02-14T00:24:18.850Z,-6.35
2018-02-14T00:26:46.405Z,-6.42
2018-02-14T00:29:13.975Z,-6.46
2018-02-14T00:31:41.502Z,-6.40
2018-02-14T00:34:09.025Z,-6.51
2018-02-14T00:36:36.581Z,-6.63
2018-02-14T00:39:04.136Z,-6.65
2018-02-14T00:41:31.648Z,-6.56
2018-02-14T00:43:59.280Z,-6.60
2018-02-14T00:46:26.826Z,-6.72
2018-02-14T00:48:54.357Z,-6.84
2018-02-14T00:51:21.887Z,-6.87
2018-02-14T00:53:49.396Z,-6.90
2018-02-14T00:56:16.914Z,-6.85
2018-02-14T00:58:44.435Z,-6.91
2018-02-14T01:01:11.955Z,-6.95
2018-02-14T01:03:39.630Z,-6.98
2018-02-14T01:06:07.320Z,-6.69
2018-02-14T01:08:34.856Z,-6.61
2018-02-14T01:11:02.390Z,-6.70
2018-02-14T01:13:29.901Z,-6.76
2018-02-14T01:15:57.584Z,-6.81
2018-02-14T01:18:25.145Z,-6.97
2018-02-14T01:20:53.577Z,-6.88
2018-02-14T01:23:21.100Z,-6.69
2018-02-14T01:25:48.644Z,-6.84
2018-02-14T01:28:16.280Z,-6.97
2018-02-14T01:30:43.818Z,-6.86
2018-02-14T01:33:11.335Z,-6.71
2018-02-14T01:35:38.861Z,-6.75
2018-02-14T01:38:06.395Z,-6.81
2018-02-14T01:40:33.907Z,-7.00
2018-02-14T01:43:01.424Z,-6.93
2018-02-14T01:45:29.090Z,-6.84
2018-02-14T01:47:56.587Z,-6.77
2018-02-14T01:50:35.910Z,-6.94
2018-02-14T01:53:03.479Z,-6.97
2018-02-14T01:55:31.007Z,-6.77
2018-02-14T01:57:58.709Z,-7.01
2018-02-14T02:00:26.252Z,-7.29
2018-02-14T02:02:53.966Z,-7.35
2018-02-14T02:05:21.514Z,-7.29
2018-02-14T02:07:49.068Z,-7.28
2018-02-14T02:10:16.731Z,-7.32
2018-02-14T02:12:44.255Z,-7.33
2018-02-14T02:15:11.802Z,-7.44
2018-02-14T02:17:39.331Z,-7.39
2018-02-14T02:20:06.876Z,-7.27
2018-02-14T02:22:34.603Z,-7.22
2018-02-14T02:25:02.126Z,-7.22
2018-02-14T02:27:29.676Z,-7.16
2018-02-14T02:29:57.226Z,-7.08
2018-02-14T02:32:24.934Z,-7.21
2018-02-14T02:34:52.472Z,-7.01
2018-02-14T02:37:20.030Z,-7.25
2018-02-14T02:39:59.557Z,-7.51
2018-02-14T02:42:27.091Z,-7.46
2018-02-14T02:44:54.651Z,-7.44
2018-02-14T02:47:22.174Z,-7.38
2018-02-14T02:49:49.769Z,-7.42
2018-02-14T02:52:17.316Z,-7.58
2018-02-14T02:54:44.849Z,-7.47
2018-02-14T02:57:12.397Z,-7.38
2018-02-14T02:59:39.926Z,-7.44
2018-02-14T03:02:07.664Z,-7.21
2018-02-14T03:04:35.312Z,-7.24
2018-02-14T03:07:02.952Z,-7.27
2018-02-14T03:09:30.492Z,-7.33
2018-02-14T03:11:58.020Z,-7.52
2018-02-14T03:14:25.549Z,-7.43
2018-02-14T03:16:53.089Z,-7.37
2018-02-14T03:19:20.634Z,-7.17
2018-02-14T03:21:48.162Z,-7.27
2018-02-14T03:24:15.691Z,-7.06
2018-02-14T03:26:43.257Z,-7.18
2018-02-14T03:29:10.795Z,-7.60
2018-02-14T03:31:38.336Z,-7.62
2018-02-14T03:34:05.851Z,-7.59
2018-02-14T03:36:33.417Z,-7.39
2018-02-14T03:39:00.984Z,-7.50
2018-02-14T03:41:28.512Z,-7.67
2018-02-14T03:43:56.030Z,-7.36
2018-02-14T03:46:23.559Z,-7.45
2018-02-14T03:48:51.110Z,-7.57
2018-02-14T03:51:18.634Z,-7.65
2018-02-14T03:53:46.200Z,-7.57
2018-02-14T03:56:13.740Z,-7.61
2018-02-14T03:58:41.301Z,-7.58
2018-02-14T04:01:08.886Z,-7.51
2018-02-14T04:03:36.405Z,-7.72
2018-02-14T04:06:03.939Z,-7.73
2018-02-14T04:08:31.465Z,-7.94
2018-02-14T04:10:58.994Z,-7.94
2018-02-14T04:13:26.544Z,-7.92
2018-02-14T04:15:54.074Z,-7.73
2018-02-14T04:18:21.586Z,-7.72
2018-02-14T04:20:49.111Z,-7.65
2018-02-14T04:23:16.652Z,-7.50
2018-02-14T04:25:44.170Z,-7.33
2018-02-14T04:28:21.665Z,-7.52
2018-02-14T04:30:49.240Z,-7.77
2018-02-14T04:33:16.761Z,-7.95
2018-02-14T04:35:44.282Z,-7.90
2018-02-14T04:38:11.830Z,-7.81
2018-02-14T04:40:39.355Z,-7.56
2018-02-14T04:43:06.881Z,-7.38
2018-02-14T04:45:34.400Z,-7.53
2018-02-14T04:48:01.916Z,-7.48
2018-02-14T04:50:29.442Z,-7.47
2018-02-14T04:52:56.951Z,-7.47
2018-02-14T04:55:24.495Z,-7.51
2018-02-14T04:57:52.036Z,-7.84
2018-02-14T05:00:19.551Z,-7.98
2018-02-14T05:02:47.075Z,-7.98
2018-02-14T05:05:14.606Z,-7.78
2018-02-14T05:07:42.115Z,-8.00
2018-02-14T05:10:09.626Z,-7.98
2018-02-14T05:12:37.166Z,-7.86
2018-02-14T05:15:04.706Z,-8.04
2018-02-14T05:17:32.223Z,-8.19
2018-02-14T05:19:59.750Z,-8.22
2018-02-14T05:22:27.287Z,-8.22
2018-02-14T05:24:54.937Z,-8.20
2018-02-14T05:27:22.510Z,-8.29
2018-02-14T05:29:50.105Z,-8.29
2018-02-14T05:32:17.750Z,-8.18
2018-02-14T05:34:45.407Z,-7.99
2018-02-14T05:37:13.063Z,-8.02
2018-02-14T05:39:40.621Z,-7.84
2018-02-14T05:42:08.270Z,-7.54
2018-02-14T05:44:35.818Z,-7.86
2018-02-14T05:47:03.357Z,-8.00
2018-02-14T05:49:30.900Z,-7.85
2018-02-14T05:51:58.432Z,-8.06
2018-02-14T05:54:26.070Z,-8.27
2018-02-14T05:56:53.627Z,-8.34
2018-02-14T05:59:21.172Z,-8.24
2018-02-14T06:01:48.680Z,-8.24
2018-02-14T06:04:16.206Z,-8.19
2018-02-14T06:06:43.817Z,-8.33
2018-02-14T06:09:11.341Z,-8.09
2018-02-14T06:11:38.861Z,-8.12
2018-02-14T06:14:06.413Z,-8.54
2018-02-14T06:16:33.952Z,-8.52
2018-02-14T06:19:01.502Z,-8.43
2018-02-14T06:21:29.044Z,-8.57
2018-02-14T06:23:56.621Z,-8.48
2018-02-14T06:26:24.162Z,-8.29
2018-02-14T06:28:51.710Z,-8.11
2018-02-14T06:31:19.255Z,-8.17
2018-02-14T06:33:46.826Z,-8.19
2018-02-14T06:36:14.622Z,-8.01
2018-02-14T06:38:42.309Z,-8.35
2018-02-14T06:41:09.861Z,-8.46
2018-02-14T06:43:37.497Z,-8.47
2018-02-14T06:46:05.214Z,-8.48
2018-02-14T06:48:32.896Z,-8.36
2018-02-14T06:51:00.712Z,-8.16
2018-02-14T06:53:28.246Z,-7.97
2018-02-14T06:55:55.793Z,-7.94
2018-02-14T06:58:23.322Z,-7.64
2018-02-14T07:00:50.865Z,-7.97
2018-02-14T07:03:18.401Z,-7.91
2018-02-14T07:05:45.946Z,-8.09
2018-02-14T07:08:13.565Z,-7.92
2018-02-14T07:10:41.089Z,-7.98
2018-02-14T07:13:08.685Z,-7.98
2018-02-14T07:15:36.247Z,-7.81
2018-02-14T07:18:03.805Z,-7.51
2018-02-14T07:20:31.347Z,-7.43
2018-02-14T07:22:59.022Z,-7.59
2018-02-14T07:25:26.572Z,-7.46
2018-02-14T07:27:54.140Z,-7.25
2018-02-14T07:30:21.665Z,-6.95
2018-02-14T07:32:49.180Z,-6.74
2018-02-14T07:35:16.711Z,-6.57
2018-02-14T07:37:44.252Z,-6.65
2018-02-14T07:40:11.791Z,-6.53
2018-02-14T07:42:39.350Z,-6.29
2018-02-14T07:45:06.905Z,-6.21
2018-02-14T07:47:34.461Z,-6.21
2018-02-14T07:50:01.997Z,-6.22
2018-02-14T07:52:29.610Z,-5.97
2018-02-14T07:54:57.176Z,-5.74
2018-02-14T07:57:24.745Z,-5.62
2018-02-14T07:59:52.310Z,-5.35
2018-02-14T08:02:19.855Z,-5.15
2018-02-14T08:04:47.417Z,-4.90
2018-02-14T08:07:14.992Z,-4.74
2018-02-14T08:09:42.551Z,-4.55
2018-02-14T08:12:10.196Z,-4.24
2018-02-14T08:14:37.810Z,-4.30
2018-02-14T08:17:05.390Z,-4.02
2018-02-14T08:19:33.056Z,-3.58
2018-02-14T08:22:00.760Z,-3.06
2018-02-14T08:24:28.560Z,-2.70
2018-02-14T08:26:56.126Z,-2.14
2018-02-14T08:29:23.685Z,-1.77
2018-02-14T08:31:51.246Z,-1.56
2018-02-14T08:34:18.919Z,-0.86
2018-02-14T08:36:46.455Z,-0.26
2018-02-14T08:39:14.007Z,0.16
2018-02-14T08:41:41.780Z,-0.36
2018-02-14T08:44:09.313Z,0.65
2018-02-14T08:46:36.876Z,0.89
2018-02-14T08:49:04.412Z,0.51
2018-02-14T08:51:31.984Z,1.32
2018-02-14T08:53:59.521Z,1.99
2018-02-14T08:56:27.075Z,1.85
2018-02-14T08:58:54.683Z,1.82
2018-02-14T09:01:22.375Z,3.17
2018-02-14T09:03:49.906Z,3.30
2018-02-14T09:06:17.490Z,3.86
2018-02-14T09:08:45.081Z,3.95
2018-02-14T09:11:12.602Z,2.64
2018-02-14T09:13:40.250Z,3.66
2018-02-14T09:16:07.812Z,3.83
2018-02-14T09:18:35.380Z,4.18
2018-02-14T09:21:02.957Z,5.41
2018-02-14T09:23:30.576Z,6.05
2018-02-14T09:25:58.190Z,7.39
2018-02-14T09:28:25.731Z,7.47
2018-02-14T09:30:54.104Z,7.81
2018-02-14T09:33:21.687Z,6.18
2018-02-14T09:35:49.254Z,5.82
2018-02-14T09:38:16.960Z,6.03
2018-02-14T09:40:44.475Z,4.26
2018-02-14T09:43:12.027Z,3.52
2018-02-14T09:45:39.586Z,6.11
2018-02-14T09:48:07.123Z,6.39
2018-02-14T09:50:34.666Z,7.85
2018-02-14T09:53:02.187Z,7.40
2018-02-14T09:55:29.793Z,6.95
2018-02-14T09:57:57.416Z,6.26
2018-02-14T10:00:24.967Z,6.20
2018-02-14T10:02:52.533Z,7.99
2018-02-14T10:05:20.102Z,8.69
2018-02-14T10:07:47.635Z,9.87
2018-02-14T10:10:15.207Z,10.91
2018-02-14T10:12:42.740Z,11.30
2018-02-14T10:15:10.318Z,12.16
2018-02-14T10:17:37.902Z,12.61
2018-02-14T10:20:05.419Z,12.38
2018-02-14T10:22:32.971Z,9.40
2018-02-14T10:25:00.533Z,9.07
2018-02-14T10:27:28.078Z,7.16
2018-02-14T10:29:55.621Z,5.39
2018-02-14T10:32:23.207Z,7.80
2018-02-14T10:34:50.800Z,11.30
2018-02-14T10:37:18.365Z,14.04
2018-02-14T10:39:45.930Z,15.45
2018-02-14T10:42:13.497Z,16.70
2018-02-14T10:44:41.145Z,16.21
2018-02-14T10:47:08.700Z,14.13
2018-02-14T10:49:36.282Z,17.67
2018-02-14T10:52:03.825Z,18.98
2018-02-14T10:54:31.366Z,19.65
2018-02-14T10:56:58.911Z,19.32
2018-02-14T10:59:26.466Z,18.72
2018-02-14T11:01:59.645Z,20.75
2018-02-14T11:04:27.201Z,15.54
2018-02-14T11:06:54.711Z,14.11
2018-02-14T11:09:22.238Z,16.96
2018-02-14T11:11:49.807Z,17.19
2018-02-14T11:14:17.339Z,15.84
2018-02-14T11:16:44.946Z,15.16
2018-02-14T11:19:12.501Z,13.20
2018-02-14T11:21:40.040Z,11.43
2018-02-14T11:24:07.616Z,13.01
2018-02-14T11:26:35.296Z,14.81
2018-02-14T11:29:02.898Z,16.93
2018-02-14T11:31:30.446Z,15.56
2018-02-14T11:33:58.000Z,19.30
2018-02-14T11:36:25.638Z,16.15
2018-02-14T11:38:53.182Z,18.75
2018-02-14T11:41:20.761Z,15.48
2018-02-14T11:43:48.302Z,15.31
2018-02-14T11:46:15.873Z,15.13
2018-02-14T11:48:43.432Z,14.97
2018-02-14T11:51:11.078Z,18.14
2018-02-14T11:53:38.607Z,19.84
2018-02-14T11:56:06.268Z,22.39
2018-02-14T11:58:33.864Z,22.69
2018-02-14T12:01:03.220Z,24.86
2018-02-14T12:03:30.781Z,17.36
2018-02-14T12:05:58.330Z,20.52
2018-02-14T12:08:25.907Z,15.55
2018-02-14T12:10:53.485Z,18.04
2018-02-14T12:13:21.003Z,14.80
2018-02-14T12:15:48.556Z,16.66
2018-02-14T12:18:16.096Z,18.98
2018-02-14T12:20:43.812Z,19.41
2018-02-14T12:23:11.667Z,21.87
2018-02-14T12:25:39.219Z,20.30
2018-02-14T12:28:06.772Z,18.36
2018-02-14T12:30:34.325Z,13.48
2018-02-14T12:33:01.847Z,14.45
2018-02-14T12:35:33.251Z,15.72
2018-02-14T12:38:01.851Z,16.23
2018-02-14T12:40:29.452Z,13.85
2018-02-14T12:42:57.001Z,12.94
2018-02-14T12:45:24.567Z,12.36
2018-02-14T12:47:52.141Z,11.10
2018-02-14T12:50:19.782Z,10.35
2018-02-14T12:52:47.320Z,11.76
2018-02-14T12:55:14.875Z,14.85
2018-02-14T12:57:42.517Z,15.14
2018-02-14T13:00:10.061Z,15.80
2018-02-14T13:02:37.581Z,16.24
2018-02-14T13:05:05.235Z,18.58
2018-02-14T13:07:32.781Z,19.01
2018-02-14T13:10:00.416Z,18.70
2018-02-14T13:12:27.947Z,18.66
2018-02-14T13:14:59.757Z,18.08
2018-02-14T13:17:27.319Z,19.76
2018-02-14T13:19:54.853Z,15.62
2018-02-14T13:22:22.401Z,19.84
2018-02-14T13:24:49.965Z,18.90
2018-02-14T13:27:17.506Z,17.44
2018-02-14T13:29:45.067Z,18.32
2018-02-14T13:32:12.607Z,16.58
2018-02-14T13:34:40.152Z,14.52
2018-02-14T13:37:07.756Z,13.80
2018-02-14T13:39:35.290Z,14.08
2018-02-14T13:42:02.927Z,11.39
2018-02-14T13:44:30.472Z,10.77
2018-02-14T13:46:57.996Z,13.77
2018-02-14T13:49:26.417Z,14.51
2018-02-14T13:51:53.956Z,14.61
2018-02-14T13:54:21.547Z,14.92
2018-02-14T13:56:49.103Z,14.69
2018-02-14T13:59:16.658Z,12.35
2018-02-14T14:01:44.320Z,11.67
2018-02-14T14:04:12.037Z,12.96
2018-02-14T14:06:39.586Z,9.45
2018-02-14T14:09:07.166Z,10.52
2018-02-14T14:11:34.703Z,9.49
2018-02-14T14:14:02.264Z,8.57
2018-02-14T14:16:29.797Z,7.84
2018-02-14T14:18:57.321Z,7.96
2018-02-14T14:21:24.931Z,8.40
2018-02-14T14:23:52.483Z,8.55
2018-02-14T14:26:20.032Z,11.84
2018-02-14T14:28:47.576Z,13.45
2018-02-14T14:31:15.098Z,11.74
2018-02-14T14:33:42.633Z,14.00
2018-02-14T14:36:10.183Z,12.65
2018-02-14T14:38:37.722Z,13.40
2018-02-14T14:41:05.255Z,14.66
2018-02-14T14:43:33.060Z,11.54
2018-02-14T14:46:03.363Z,10.63
2018-02-14T14:51:02.858Z,10.50
2018-02-14T14:53:30.433Z,9.64
2018-02-14T14:55:57.996Z,8.31
2018-02-14T14:58:25.535Z,7.32
2018-02-14T15:00:53.906Z,8.75
2018-02-14T15:03:21.438Z,9.44
2018-02-14T15:05:48.972Z,7.09
2018-02-14T15:08:16.507Z,7.74
2018-02-14T15:10:44.042Z,6.54
2018-02-14T15:13:11.590Z,6.27
2018-02-14T15:15:39.107Z,6.19
2018-02-14T15:18:06.751Z,5.80
2018-02-14T15:20:34.304Z,5.73
2018-02-14T15:23:01.887Z,5.97
2018-02-14T15:25:29.421Z,5.71
2018-02-14T15:27:56.997Z,5.60
2018-02-14T15:30:24.548Z,5.47
2018-02-14T15:32:52.083Z,5.39
2018-02-14T15:35:19.639Z,4.90
2018-02-14T15:37:47.190Z,4.90
2018-02-14T15:40:14.766Z,4.62
2018-02-14T15:42:42.291Z,4.39
2018-02-14T15:45:09.856Z,4.19
2018-02-14T15:47:37.410Z,3.99
2018-02-14T15:50:04.937Z,3.91
2018-02-14T15:52:32.465Z,3.67
2018-02-14T15:55:00.040Z,3.59
2018-02-14T15:57:27.642Z,3.11
2018-02-14T15:59:55.171Z,3.37
2018-02-14T16:02:22.692Z,3.00
2018-02-14T16:04:50.256Z,2.93
2018-02-14T16:07:17.785Z,2.79
2018-02-14T16:09:45.511Z,2.48
2018-02-14T16:12:13.119Z,2.32
2018-02-14T16:14:40.656Z,2.28
2018-02-14T16:17:08.235Z,2.53
2018-02-14T16:19:35.757Z,2.41
2018-02-14T16:22:03.297Z,2.74
2018-02-14T16:24:30.815Z,2.65
2018-02-14T16:26:58.373Z,2.76
2018-02-14T16:29:25.946Z,2.56
2018-02-14T16:31:53.476Z,2.20
2018-02-14T16:34:20.986Z,2.26
2018-02-14T16:36:48.515Z,2.07
2018-02-14T16:39:16.047Z,1.91
2018-02-14T16:41:43.836Z,1.69
2018-02-14T16:44:11.871Z,1.53
2018-02-14T16:46:39.416Z,1.42
2018-02-14T16:49:07.355Z,1.31
2018-02-14T16:51:35.131Z,0.97
2018-02-14T16:54:03.008Z,0.56
2018-02-14T16:56:30.945Z,0.24
2018-02-14T16:58:59.343Z,0.16
2018-02-14T17:01:26.948Z,0.10
2018-02-14T17:03:54.505Z,-0.11
2018-02-14T17:06:22.452Z,-0.17
2018-02-14T17:08:51.119Z,-0.22
2018-02-14T17:11:18.883Z,-0.41
2018-02-14T17:13:46.848Z,-0.32
2018-02-14T17:16:14.847Z,-0.44
2018-02-14T17:18:42.815Z,-0.53
2018-02-14T17:21:10.581Z,-0.61
2018-02-14T17:23:38.428Z,-0.79
2018-02-14T17:26:06.000Z,-0.90
2018-02-14T17:28:33.536Z,-0.85
2018-02-14T17:31:01.128Z,-1.12
2018-02-14T17:33:28.656Z,-1.12
2018-02-14T17:35:56.327Z,-1.18
2018-02-14T17:38:24.132Z,-1.16
2018-02-14T17:40:51.982Z,-1.60
2018-02-14T17:43:19.542Z,-1.79
2018-02-14T17:45:47.099Z,-1.82
2018-02-14T17:48:14.626Z,-1.64
2018-02-14T17:50:42.187Z,-1.54
2018-02-14T17:53:09.728Z,-1.76
2018-02-14T17:55:37.280Z,-1.78
2018-02-14T17:58:04.832Z,-2.05
2018-02-14T18:00:32.351Z,-2.07
2018-02-14T18:02:59.892Z,-2.10
2018-02-14T18:05:27.423Z,-2.08
2018-02-14T18:07:54.974Z,-2.01
2018-02-14T18:10:22.485Z,-2.10
2018-02-14T18:12:50.117Z,-2.33
2018-02-14T18:15:17.660Z,-2.30
2018-02-14T18:17:45.222Z,-2.30
2018-02-14T18:20:12.912Z,-2.46
2018-02-14T18:22:40.440Z,-2.50
2018-02-14T18:25:07.954Z,-2.48
2018-02-14T18:27:35.494Z,-2.59
2018-02-14T18:30:03.095Z,-2.66
2018-02-14T18:32:30.691Z,-2.77
2018-02-14T18:34:58.262Z,-3.07
2018-02-14T18:37:25.921Z,-3.28
2018-02-14T18:39:53.492Z,-3.18
2018-02-14T18:42:21.063Z,-3.21
2018-02-14T18:44:48.631Z,-3.38
2018-02-14T18:47:16.178Z,-3.41
2018-02-14T18:49:43.717Z,-3.39
2018-02-14T18:52:11.248Z,-3.51
2018-02-14T18:54:38.803Z,-3.32
2018-02-14T18:57:06.493Z,-3.54
2018-02-14T18:59:34.044Z,-3.63
2018-02-14T19:02:01.598Z,-3.71
2018-02-14T19:04:29.243Z,-3.73
2018-02-14T19:06:56.792Z,-3.70
2018-02-14T19:09:24.348Z,-3.68
2018-02-14T19:11:51.918Z,-3.79
2018-02-14T19:14:19.476Z,-3.68
2018-02-14T19:16:47.371Z,-3.62
2018-02-14T19:19:14.931Z,-3.84
2018-02-14T19:21:42.585Z,-3.87
2018-02-14T19:24:10.158Z,-4.01
2018-02-14T19:26:37.793Z,-4.07
2018-02-14T19:29:05.320Z,-4.16
2018-02-14T19:31:33.060Z,-3.87
2018-02-14T19:34:00.628Z,-4.00
2018-02-14T19:36:28.234Z,-3.92
2018-02-14T19:38:56.159Z,-3.89
2018-02-14T19:41:23.938Z,-3.95
2018-02-14T19:43:51.540Z,-4.23
2018-02-14T19:46:19.097Z,-4.29
2018-02-14T19:48:46.775Z,-4.33
2018-02-14T19:51:14.367Z,-4.47
2018-02-14T19:53:41.936Z,-4.51
2018-02-14T19:56:09.505Z,-4.68
2018-02-14T19:58:37.075Z,-4.77
2018-02-14T20:01:04.623Z,-4.93
2018-02-14T20:03:32.441Z,-4.63
2018-02-14T20:06:00.103Z,-4.62
2018-02-14T20:08:27.692Z,-4.69
2018-02-14T20:10:55.236Z,-4.71
2018-02-14T20:13:22.834Z,-4.85
2018-02-14T20:15:50.386Z,-4.99
2018-02-14T20:18:17.953Z,-4.97
2018-02-14T20:20:45.567Z,-5.19
2018-02-14T20:23:13.173Z,-4.88
2018-02-14T20:25:40.849Z,-5.17
2018-02-14T20:28:08.432Z,-5.27
2018-02-14T20:30:35.963Z,-5.38
2018-02-14T20:33:03.559Z,-5.37
2018-02-14T20:35:31.201Z,-5.32
2018-02-14T20:37:58.765Z,-5.40
2018-02-14T20:40:26.295Z,-5.37
2018-02-14T20:42:53.822Z,-5.34
2018-02-14T20:45:21.422Z,-5.33
2018-02-14T20:47:49.083Z,-5.34
2018-02-14T20:50:16.688Z,-5.58
2018-02-14T20:52:44.245Z,-5.56
2018-02-14T20:55:11.808Z,-5.53
2018-02-14T20:57:39.498Z,-5.46
2018-02-14T21:00:07.077Z,-5.36
2018-02-14T21:02:34.692Z,-5.43
2018-02-14T21:05:02.216Z,-5.48
2018-02-14T21:07:29.769Z,-5.46
2018-02-14T21:09:57.335Z,-5.66
2018-02-14T21:12:24.912Z,-5.58
2018-02-14T21:14:52.472Z,-5.64
2018-02-14T21:17:20.012Z,-5.64
2018-02-14T21:19:47.603Z,-5.82
2018-02-14T21:22:15.180Z,-5.78
2018-02-14T21:24:42.732Z,-5.77
2018-02-14T21:27:10.250Z,-5.85
2018-02-14T21:29:37.793Z,-5.87
2018-02-14T21:32:05.334Z,-5.85
2018-02-14T21:34:32.882Z,-5.84
2018-02-14T21:37:00.421Z,-5.87
2018-02-14T21:39:28.077Z,-5.87
2018-02-14T21:41:55.632Z,-5.82
2018-02-14T21:44:23.313Z,-5.77
2018-02-14T21:46:50.882Z,-5.85
2018-02-14T21:49:18.592Z,-5.94
2018-02-14T21:51:46.186Z,-6.00
2018-02-14T21:54:13.816Z,-6.08
2018-02-14T21:56:41.357Z,-6.08
2018-02-14T21:59:08.896Z,-6.05
2018-02-14T22:01:36.453Z,-6.06
2018-02-14T22:04:04.067Z,-6.15
2018-02-14T22:06:31.631Z,-6.21
2018-02-14T22:08:59.176Z,-6.11
2018-02-14T22:11:26.702Z,-6.19
2018-02-14T22:13:54.283Z,-5.96
2018-02-14T22:16:21.877Z,-6.01
2018-02-14T22:18:49.486Z,-6.09
2018-02-14T22:21:17.017Z,-6.19
2018-02-14T22:23:44.775Z,-6.22
2018-02-14T22:26:12.394Z,-6.22
2018-02-14T22:28:40.071Z,-6.15
2018-02-14T22:31:07.838Z,-6.18
2018-02-14T22:33:35.416Z,-6.19
2018-02-14T22:36:03.062Z,-6.12
2018-02-14T22:38:30.618Z,-6.08
2018-02-14T22:40:58.176Z,-6.19
2018-02-14T22:43:25.817Z,-6.11
2018-02-14T22:45:54.547Z,-6.11
2018-02-14T22:48:22.420Z,-6.15
2018-02-14T22:50:49.953Z,-6.09
2018-02-14T22:53:17.515Z,-6.09
2018-02-14T22:55:45.276Z,-6.17
2018-02-14T22:58:12.816Z,-6.36
2018-02-14T23:00:40.370Z,-6.27
2018-02-14T23:03:07.906Z,-6.27
2018-02-14T23:05:35.453Z,-6.25
2018-02-14T23:08:03.002Z,-6.22
2018-02-14T23:10:30.550Z,-6.34
2018-02-14T23:12:58.087Z,-6.17
2018-02-14T23:15:26.038Z,-6.37
2018-02-14T23:17:53.587Z,-6.32
2018-02-14T23:20:21.119Z,-6.35
2018-02-14T23:22:48.652Z,-6.31
2018-02-14T23:25:16.172Z,-6.36
2018-02-14T23:27:43.712Z,-6.33
2018-02-14T23:30:13.117Z,-6.19
2018-02-14T23:32:40.691Z,-6.43
2018-02-14T23:35:08.226Z,-6.43
2018-02-14T23:37:35.904Z,-6.43
2018-02-14T23:40:03.446Z,-6.15
2018-02-14T23:42:30.995Z,-6.26
2018-02-14T23:44:58.520Z,-6.27
2018-02-14T23:47:26.040Z,-6.35
2018-02-14T23:49:53.613Z,-6.39
2018-02-14T23:52:21.137Z,-6.38
2018-02-14T23:54:48.686Z,-6.36
2018-02-14T23:57:16.220Z,-6.28
2018-02-14T23:59:43.847Z,-6.11
